Time;durP1;ratioP1;P1;durP2;ratioP2;P2;SDS_P1;SDS_P2;PMS_P1;PMS_P2;Temp;Humidity;BMP_temperature;BMP_pressure;BME280_temperature;BME280_humidity;BME280_pressure;Samples;Min_cycle;Max_cycle;Signal;HPM_P1;HPM_P2
2023/09/24 00:01:53;;;;;;;4.97;2.75;;;12.00;99.90;;;;;;5039310;28;20024;-64
2023/09/24 00:04:19;;;;;;;2.33;1.67;;;12.00;99.90;;;;;;5039276;28;20025;-64
2023/09/24 00:06:45;;;;;;;8.07;2.13;;;12.10;99.90;;;;;;5039218;28;20029;-64
2023/09/24 00:09:13;;;;;;;5.30;2.03;;;12.20;99.90;;;;;;5039330;28;20036;-64
2023/09/24 00:11:39;;;;;;;3.85;1.75;;;12.10;99.90;;;;;;5039143;28;20020;-64
2023/09/24 00:14:04;;;;;;;3.05;1.75;;;12.20;99.90;;;;;;5039348;28;20100;-64
2023/09/24 00:16:30;;;;;;;2.88;1.58;;;12.10;99.90;;;;;;5039236;28;20045;-64
2023/09/24 00:18:56;;;;;;;5.18;2.03;;;12.10;99.90;;;;;;5038984;28;20051;-64
2023/09/24 00:21:21;;;;;;;3.38;1.55;;;12.00;99.90;;;;;;5037681;28;20017;-64
2023/09/24 00:23:47;;;;;;;4.60;1.75;;;12.10;99.90;;;;;;5038367;28;20017;-64
2023/09/24 00:26:13;;;;;;;3.10;2.20;;;12.10;99.90;;;;;;5038205;28;20037;-64
2023/09/24 00:28:38;;;;;;;2.58;2.00;;;12.00;99.90;;;;;;5037871;28;20021;-64
2023/09/24 00:31:04;;;;;;;3.17;2.03;;;12.00;99.90;;;;;;5038198;28;20026;-64
2023/09/24 00:33:29;;;;;;;4.78;2.17;;;11.90;99.90;;;;;;5037890;28;20028;-64
2023/09/24 00:35:59;;;;;;;5.20;1.70;;;11.90;99.90;;;;;;5037799;28;20041;-64
2023/09/24 00:38:24;;;;;;;3.67;1.98;;;11.90;99.90;;;;;;5037906;28;20022;-64
2023/09/24 00:40:50;;;;;;;3.38;2.05;;;11.80;99.90;;;;;;5037719;28;20025;-64
2023/09/24 00:43:30;;;;;;;3.78;1.50;;;11.70;99.90;;;;;;5038417;28;20070;-64
2023/09/24 00:45:57;;;;;;;4.55;1.70;;;11.60;99.90;;;;;;5037558;28;20032;-64
2023/09/24 00:48:28;;;;;;;2.45;1.63;;;11.50;99.90;;;;;;5037547;28;20021;-64
2023/09/24 00:50:59;;;;;;;5.80;1.73;;;11.50;99.90;;;;;;5038425;28;20033;-64
2023/09/24 00:53:26;;;;;;;4.50;2.15;;;11.40;99.90;;;;;;5038922;28;20081;-64
2023/09/24 00:55:53;;;;;;;3.30;1.92;;;11.40;99.90;;;;;;5037901;28;20033;-64
2023/09/24 00:58:19;;;;;;;3.13;1.58;;;11.40;99.90;;;;;;5037341;28;20052;-64
2023/09/24 01:00:46;;;;;;;2.35;1.52;;;11.40;99.90;;;;;;5038499;28;20025;-64
2023/09/24 01:03:13;;;;;;;3.58;1.83;;;11.40;99.90;;;;;;5038148;28;20022;-64
2023/09/24 01:05:40;;;;;;;7.75;2.25;;;11.40;99.90;;;;;;5038049;28;20164;-64
2023/09/24 01:08:06;;;;;;;3.13;2.08;;;11.30;99.90;;;;;;5037509;28;20018;-64
2023/09/24 01:10:31;;;;;;;3.15;1.50;;;11.30;99.90;;;;;;5037892;28;20144;-64
2023/09/24 01:12:59;;;;;;;4.88;2.00;;;11.20;99.90;;;;;;5037901;28;20026;-64
2023/09/24 01:15:25;;;;;;;6.13;1.83;;;11.20;99.90;;;;;;5038011;28;20040;-64
2023/09/24 01:17:52;;;;;;;6.07;1.95;;;11.40;99.90;;;;;;5037935;28;20018;-64
2023/09/24 01:20:22;;;;;;;5.70;1.95;;;11.30;99.90;;;;;;5037343;28;20048;-64
2023/09/24 01:22:50;;;;;;;2.80;1.67;;;11.30;99.90;;;;;;5037983;28;20021;-64
2023/09/24 01:25:16;;;;;;;4.72;2.15;;;11.40;99.90;;;;;;5036985;28;20026;-64
2023/09/24 01:27:42;;;;;;;4.65;1.73;;;11.40;99.90;;;;;;5036994;28;20071;-64
2023/09/24 01:30:08;;;;;;;5.22;1.92;;;11.40;99.90;;;;;;5037508;28;20029;-64
2023/09/24 01:32:34;;;;;;;3.20;2.00;;;11.30;99.90;;;;;;5037182;28;20021;-64
2023/09/24 01:35:03;;;;;;;6.25;1.83;;;11.20;99.90;;;;;;5036752;28;20075;-64
2023/09/24 01:37:29;;;;;;;1.92;1.58;;;11.10;99.90;;;;;;5038016;28;20037;-64
2023/09/24 01:39:55;;;;;;;2.25;1.50;;;11.10;99.90;;;;;;5037600;28;20071;-64
2023/09/24 01:42:20;;;;;;;3.53;1.85;;;11.20;99.90;;;;;;5037359;28;20060;-64
2023/09/24 01:44:47;;;;;;;2.97;1.70;;;11.10;99.90;;;;;;5036756;28;20203;-64
2023/09/24 01:47:13;;;;;;;2.17;1.42;;;11.00;99.90;;;;;;5037339;28;20025;-64
2023/09/24 01:49:39;;;;;;;3.75;1.58;;;11.10;99.90;;;;;;5036664;28;20025;-64
2023/09/24 01:52:05;;;;;;;2.00;1.38;;;11.20;99.90;;;;;;5036845;28;20021;-64
2023/09/24 01:54:31;;;;;;;3.67;1.70;;;11.20;99.90;;;;;;5037304;28;20021;-64
2023/09/24 01:56:57;;;;;;;3.95;1.67;;;11.20;99.90;;;;;;5037212;28;20033;-64
2023/09/24 01:59:23;;;;;;;2.83;1.42;;;11.00;99.90;;;;;;5037259;28;20022;-64
2023/09/24 02:01:51;;;;;;;4.15;1.63;;;11.00;99.90;;;;;;5037137;28;20108;-64
2023/09/24 02:04:16;;;;;;;5.40;1.38;;;11.00;99.90;;;;;;5037047;28;20025;-64
2023/09/24 02:06:42;;;;;;;3.97;1.27;;;11.00;99.90;;;;;;5037051;28;20031;-64
2023/09/24 02:09:07;;;;;;;3.13;1.67;;;11.00;99.90;;;;;;5058751;22;20104;-68
2023/09/24 02:11:33;;;;;;;3.85;1.40;;;11.00;99.90;;;;;;5017675;28;20037;-70
2023/09/24 02:13:59;;;;;;;6.78;1.90;;;10.90;99.90;;;;;;5017311;28;20045;-71
2023/09/24 02:16:24;;;;;;;2.75;1.23;;;10.80;99.90;;;;;;5016583;28;20076;-71
2023/09/24 02:18:50;;;;;;;3.53;1.42;;;10.90;99.90;;;;;;5017376;28;20165;-69
2023/09/24 02:21:17;;;;;;;2.95;1.10;;;10.90;99.90;;;;;;5017232;28;20034;-69
2023/09/24 02:23:43;;;;;;;4.75;1.77;;;10.80;99.90;;;;;;5017435;28;20109;-69
2023/09/24 02:26:09;;;;;;;5.57;1.58;;;10.70;99.90;;;;;;5016585;28;20053;-68
2023/09/24 02:28:38;;;;;;;2.38;1.48;;;10.70;99.90;;;;;;5017090;28;20060;-68
2023/09/24 02:31:05;;;;;;;2.65;1.40;;;10.70;99.90;;;;;;5017320;28;20058;-66
2023/09/24 02:33:31;;;;;;;3.40;1.90;;;10.70;99.90;;;;;;5017651;28;20018;-65
2023/09/24 02:35:56;;;;;;;2.72;1.20;;;10.50;99.90;;;;;;5016167;28;20025;-65
2023/09/24 02:38:24;;;;;;;3.10;1.55;;;10.50;99.90;;;;;;5016121;28;20142;-65
2023/09/24 02:40:50;;;;;;;3.30;1.60;;;10.60;99.90;;;;;;5017024;28;20032;-66
2023/09/24 02:43:15;;;;;;;5.32;1.85;;;10.60;99.90;;;;;;5015975;28;20125;-65
2023/09/24 02:45:41;;;;;;;7.38;1.98;;;10.50;99.90;;;;;;5020168;28;20030;-65
2023/09/24 02:48:07;;;;;;;5.07;1.52;;;10.40;99.90;;;;;;5020581;28;20022;-65
2023/09/24 02:50:33;;;;;;;3.47;2.00;;;10.40;99.90;;;;;;5021143;28;20022;-66
2023/09/24 02:53:00;;;;;;;6.55;1.67;;;10.50;99.90;;;;;;5020712;28;20145;-66
2023/09/24 02:55:28;;;;;;;3.70;2.28;;;10.50;99.90;;;;;;5019822;28;20037;-65
2023/09/24 02:57:53;;;;;;;2.42;1.60;;;10.60;99.90;;;;;;5021084;28;20101;-66
2023/09/24 03:00:32;;;;;;;2.35;1.50;;;10.50;99.90;;;;;;5019693;28;20101;-65
2023/09/24 03:02:58;;;;;;;4.22;1.52;;;10.50;99.90;;;;;;5019756;28;20044;-65
2023/09/24 03:05:25;;;;;;;2.35;1.35;;;10.60;99.90;;;;;;5019785;28;20081;-66
2023/09/24 03:07:51;;;;;;;3.95;1.83;;;10.70;99.90;;;;;;5019604;28;20026;-66
2023/09/24 03:10:18;;;;;;;2.38;1.52;;;10.70;99.90;;;;;;5019609;28;20030;-66
2023/09/24 03:12:44;;;;;;;3.45;1.80;;;10.70;99.90;;;;;;5020357;28;20048;-65
2023/09/24 03:15:10;;;;;;;2.88;1.63;;;10.60;99.90;;;;;;5020312;28;20057;-65
2023/09/24 03:17:38;;;;;;;3.92;1.85;;;10.60;99.90;;;;;;5019478;28;20057;-66
2023/09/24 03:20:14;;;;;;;2.72;1.58;;;10.40;99.90;;;;;;5020153;28;20022;-65
2023/09/24 03:22:40;;;;;;;4.18;1.25;;;10.30;99.90;;;;;;5020887;28;20025;-66
2023/09/24 03:25:08;;;;;;;2.92;1.30;;;10.30;99.90;;;;;;5020429;28;20041;-66
2023/09/24 03:27:34;;;;;;;2.72;1.50;;;10.30;99.90;;;;;;5020115;28;20022;-66
2023/09/24 03:29:59;;;;;;;2.17;1.38;;;10.20;99.90;;;;;;5020153;28;20018;-66
2023/09/24 03:32:25;;;;;;;2.10;1.40;;;10.20;99.90;;;;;;5019212;28;20022;-66
2023/09/24 03:34:52;;;;;;;2.53;1.40;;;10.20;99.90;;;;;;5020256;28;20022;-66
2023/09/24 03:37:18;;;;;;;1.58;1.25;;;10.10;99.90;;;;;;5019938;28;20030;-65
2023/09/24 03:39:43;;;;;;;2.88;1.52;;;10.10;99.90;;;;;;5019563;28;20033;-65
2023/09/24 03:42:09;;;;;;;4.85;1.20;;;10.20;99.90;;;;;;5019824;28;20100;-66
2023/09/24 03:44:35;;;;;;;2.35;1.50;;;10.30;99.90;;;;;;5019015;28;20041;-66
2023/09/24 03:47:00;;;;;;;3.08;1.60;;;10.30;99.90;;;;;;5019102;28;20060;-65
2023/09/24 03:49:26;;;;;;;3.33;1.38;;;10.30;99.90;;;;;;5019567;28;20026;-65
2023/09/24 03:51:51;;;;;;;1.83;1.30;;;10.20;99.90;;;;;;5019720;28;20026;-66
2023/09/24 03:54:17;;;;;;;2.22;1.45;;;10.10;99.90;;;;;;5019661;28;20022;-65
2023/09/24 03:56:42;;;;;;;3.92;1.27;;;10.00;99.90;;;;;;5018027;28;20057;-66
2023/09/24 03:59:08;;;;;;;2.53;1.20;;;9.90;99.90;;;;;;5019606;28;20112;-65
2023/09/24 04:01:34;;;;;;;3.75;1.73;;;9.90;99.90;;;;;;5018584;28;20160;-66
2023/09/24 04:04:00;;;;;;;2.45;1.40;;;10.00;99.90;;;;;;5019470;28;20049;-66
2023/09/24 04:06:25;;;;;;;6.20;1.48;;;10.10;99.90;;;;;;5019437;28;20018;-65
2023/09/24 04:08:51;;;;;;;4.97;1.80;;;10.10;99.90;;;;;;5019173;28;20018;-67
2023/09/24 04:11:18;;;;;;;3.13;1.50;;;10.20;99.90;;;;;;5019638;28;20032;-66
2023/09/24 04:13:43;;;;;;;1.35;1.17;;;10.20;99.90;;;;;;5018384;28;20045;-65
2023/09/24 04:16:10;;;;;;;3.13;1.27;;;10.20;99.90;;;;;;5019285;28;20022;-65
2023/09/24 04:18:36;;;;;;;4.32;1.55;;;10.20;99.90;;;;;;5019375;28;20041;-65
2023/09/24 04:21:02;;;;;;;2.75;1.23;;;10.20;99.90;;;;;;5018461;28;20029;-66
2023/09/24 04:23:28;;;;;;;2.80;1.70;;;10.20;99.90;;;;;;5019152;28;20100;-66
2023/09/24 04:25:54;;;;;;;2.60;1.50;;;10.20;99.90;;;;;;5018805;28;20081;-65
2023/09/24 04:28:19;;;;;;;3.10;1.45;;;10.20;99.90;;;;;;5019130;28;20022;-66
2023/09/24 04:30:46;;;;;;;4.40;2.17;;;10.20;99.90;;;;;;5019005;28;20029;-66
2023/09/24 04:33:12;;;;;;;2.72;1.67;;;10.20;99.90;;;;;;5018876;28;20025;-65
2023/09/24 04:35:38;;;;;;;5.88;2.15;;;10.20;99.90;;;;;;5018034;28;20022;-66
2023/09/24 04:38:03;;;;;;;3.35;1.50;;;10.10;99.90;;;;;;5018943;28;20049;-66
2023/09/24 04:40:29;;;;;;;1.38;1.20;;;10.00;99.90;;;;;;5017879;28;20026;-66
2023/09/24 04:42:55;;;;;;;1.60;1.20;;;9.90;99.90;;;;;;5017884;28;20033;-66
2023/09/24 04:45:20;;;;;;;1.58;1.20;;;9.90;99.90;;;;;;5017727;28;20021;-66
2023/09/24 04:47:46;;;;;;;6.57;1.60;;;9.80;99.90;;;;;;5018641;28;20066;-66
2023/09/24 04:50:12;;;;;;;1.50;1.20;;;9.80;99.90;;;;;;5017763;28;20025;-66
2023/09/24 04:52:41;;;;;;;1.65;1.20;;;9.70;99.90;;;;;;5018559;28;20026;-65
2023/09/24 04:55:08;;;;;;;1.70;1.10;;;9.70;99.90;;;;;;5018858;28;20026;-66
2023/09/24 04:57:33;;;;;;;1.50;1.20;;;9.70;99.90;;;;;;5018414;28;20026;-66
2023/09/24 04:59:59;;;;;;;1.52;1.17;;;9.70;99.90;;;;;;5018312;28;20028;-66
2023/09/24 05:02:24;;;;;;;2.30;1.30;;;9.70;99.90;;;;;;5017512;28;20030;-66
2023/09/24 05:04:51;;;;;;;1.58;1.00;;;9.80;99.90;;;;;;5018305;28;20121;-65
2023/09/24 05:07:17;;;;;;;5.80;1.60;;;9.80;99.90;;;;;;5018060;28;20033;-65
2023/09/24 05:09:45;;;;;;;1.60;1.10;;;9.90;99.90;;;;;;5018295;28;20026;-65
2023/09/24 05:12:12;;;;;;;6.18;1.70;;;9.90;99.90;;;;;;5018173;28;20080;-65
2023/09/24 05:14:38;;;;;;;2.35;1.60;;;9.90;99.90;;;;;;5018215;28;20017;-65
2023/09/24 05:17:04;;;;;;;2.22;1.45;;;9.90;99.90;;;;;;5018396;28;20096;-65
2023/09/24 05:19:30;;;;;;;2.63;1.55;;;10.00;99.90;;;;;;5017974;28;20028;-66
2023/09/24 05:21:56;;;;;;;2.45;1.60;;;10.00;99.90;;;;;;5017139;28;20026;-66
2023/09/24 05:24:21;;;;;;;2.15;1.60;;;10.00;99.90;;;;;;5018302;28;20030;-65
2023/09/24 05:26:47;;;;;;;5.75;2.22;;;9.90;99.90;;;;;;5017964;28;20076;-65
2023/09/24 05:29:12;;;;;;;11.82;4.28;;;9.90;99.90;;;;;;5017142;28;20031;-65
2023/09/24 05:31:38;;;;;;;5.55;1.65;;;9.90;99.90;;;;;;5017887;28;20021;-66
2023/09/24 05:34:05;;;;;;;26.55;2.97;;;9.90;99.90;;;;;;5017032;28;20113;-66
2023/09/24 05:36:32;;;;;;;5.15;2.03;;;9.90;99.90;;;;;;5018048;28;20025;-65
2023/09/24 05:38:58;;;;;;;16.35;2.70;;;9.90;99.90;;;;;;5017774;28;20048;-65
2023/09/24 05:41:24;;;;;;;4.22;2.05;;;10.00;99.90;;;;;;5017805;28;20105;-66
2023/09/24 05:43:49;;;;;;;5.30;2.15;;;10.00;99.90;;;;;;5016662;28;20087;-66
2023/09/24 05:46:15;;;;;;;17.02;2.72;;;10.10;99.90;;;;;;5017243;28;20061;-65
2023/09/24 05:48:41;;;;;;;3.33;2.10;;;10.10;99.90;;;;;;5017589;28;20022;-66
2023/09/24 05:51:07;;;;;;;5.45;2.33;;;10.00;99.90;;;;;;5017474;28;20022;-65
2023/09/24 05:53:33;;;;;;;4.85;2.13;;;10.10;99.90;;;;;;5017524;28;20024;-65
2023/09/24 05:56:03;;;;;;;2.53;2.05;;;10.20;99.90;;;;;;5017515;28;20026;-66
2023/09/24 05:58:29;;;;;;;8.43;2.53;;;10.20;99.90;;;;;;5017745;28;20014;-66
2023/09/24 06:00:58;;;;;;;3.17;1.92;;;10.30;99.90;;;;;;5017446;28;20033;-66
2023/09/24 06:03:23;;;;;;;5.45;1.98;;;10.20;99.90;;;;;;5017416;28;20109;-66
2023/09/24 06:05:49;;;;;;;4.22;2.22;;;10.30;99.90;;;;;;5017403;28;20101;-65
2023/09/24 06:08:15;;;;;;;5.38;2.47;;;10.30;99.90;;;;;;5016736;28;20028;-66
2023/09/24 06:10:47;;;;;;;7.55;2.35;;;10.30;99.90;;;;;;5017219;28;20054;-66
2023/09/24 06:13:16;;;;;;;3.10;2.25;;;10.30;99.90;;;;;;5017331;28;20022;-65
2023/09/24 06:15:42;;;;;;;2.55;1.70;;;10.20;99.90;;;;;;5017522;28;20025;-66
2023/09/24 06:18:09;;;;;;;3.97;1.98;;;10.30;99.90;;;;;;5017314;28;20110;-66
2023/09/24 06:20:43;;;;;;;3.20;2.08;;;10.50;99.90;;;;;;5016785;28;20046;-66
2023/09/24 06:23:10;;;;;;;8.45;2.40;;;10.40;99.90;;;;;;5016469;28;20094;-66
2023/09/24 06:25:36;;;;;;;5.13;2.25;;;10.20;99.90;;;;;;5016351;28;20054;-66
2023/09/24 06:28:04;;;;;;;7.65;3.00;;;10.10;99.90;;;;;;5017099;28;20053;-65
2023/09/24 06:30:30;;;;;;;5.10;2.67;;;10.10;99.90;;;;;;5017075;28;20101;-65
2023/09/24 06:32:55;;;;;;;21.77;3.30;;;9.90;99.90;;;;;;5016934;28;20050;-66
2023/09/24 06:35:21;;;;;;;33.30;5.10;;;9.90;99.90;;;;;;5016250;28;20018;-65
2023/09/24 06:37:46;;;;;;;23.63;3.45;;;9.90;99.90;;;;;;5016168;28;20053;-65
2023/09/24 06:40:12;;;;;;;19.20;4.22;;;9.90;99.90;;;;;;5016001;28;20050;-66
2023/09/24 06:42:37;;;;;;;12.38;3.65;;;9.80;99.90;;;;;;5016218;28;20116;-66
2023/09/24 06:45:08;;;;;;;6.30;2.60;;;9.90;99.90;;;;;;5017193;28;20030;-66
2023/09/24 06:47:34;;;;;;;7.05;3.33;;;10.10;99.90;;;;;;5016893;28;20049;-65
2023/09/24 06:49:59;;;;;;;7.05;3.13;;;10.30;99.90;;;;;;5017413;28;20025;-66
2023/09/24 06:52:26;;;;;;;8.80;3.70;;;10.40;99.90;;;;;;5016923;28;20091;-66
2023/09/24 06:54:52;;;;;;;8.50;3.10;;;10.60;99.90;;;;;;5016085;28;20022;-66
2023/09/24 06:57:17;;;;;;;12.95;3.85;;;10.60;99.90;;;;;;5017001;28;20038;-66
2023/09/24 06:59:43;;;;;;;9.93;3.53;;;10.60;99.90;;;;;;5016749;28;20119;-66
2023/09/24 07:02:09;;;;;;;16.67;3.53;;;10.60;99.90;;;;;;5016861;28;20026;-66
2023/09/24 07:04:35;;;;;;;12.02;3.50;;;10.70;99.90;;;;;;5016907;28;20022;-66
2023/09/24 07:07:01;;;;;;;8.90;3.67;;;10.70;99.90;;;;;;5015860;28;20026;-66
2023/09/24 07:09:27;;;;;;;7.35;3.90;;;10.60;99.90;;;;;;5016774;28;20034;-66
2023/09/24 07:11:52;;;;;;;7.43;3.70;;;10.60;99.90;;;;;;5016474;28;20048;-65
2023/09/24 07:14:19;;;;;;;5.50;3.60;;;10.60;99.90;;;;;;5016779;28;20025;-65
2023/09/24 07:16:45;;;;;;;6.55;3.78;;;10.50;99.90;;;;;;5016153;28;20121;-66
2023/09/24 07:19:11;;;;;;;13.40;4.25;;;10.60;99.90;;;;;;5016959;28;20057;-66
2023/09/24 07:21:37;;;;;;;8.40;3.58;;;10.70;99.90;;;;;;5016589;28;20041;-66
2023/09/24 07:24:03;;;;;;;6.78;3.45;;;10.80;99.90;;;;;;5016691;28;20026;-66
2023/09/24 07:26:29;;;;;;;6.57;3.72;;;11.00;99.90;;;;;;5016826;28;20060;-66
2023/09/24 07:28:55;;;;;;;7.30;3.55;;;11.10;99.90;;;;;;5016271;28;20018;-66
2023/09/24 07:31:22;;;;;;;11.90;4.40;;;11.10;99.90;;;;;;5017233;28;20024;-66
2023/09/24 07:33:55;;;;;;;13.70;4.10;;;11.20;99.90;;;;;;5020144;28;20053;-65
2023/09/24 07:36:21;;;;;;;5.85;4.07;;;11.20;99.90;;;;;;5019869;28;20090;-66
2023/09/24 07:38:49;;;;;;;8.65;4.72;;;11.30;99.90;;;;;;5019965;28;20118;-66
2023/09/24 07:41:15;;;;;;;16.60;4.88;;;11.30;99.90;;;;;;5019886;28;20026;-66
2023/09/24 07:43:44;;;;;;;34.03;6.47;;;11.30;99.90;;;;;;5019900;28;20029;-66
2023/09/24 07:46:14;;;;;;;13.18;5.07;;;11.00;99.90;;;;;;5019766;28;20077;-65
2023/09/24 07:48:42;;;;;;;18.60;6.13;;;10.90;99.90;;;;;;5019905;28;20022;-66
2023/09/24 07:51:08;;;;;;;7.82;4.70;;;10.90;99.90;;;;;;5019584;28;20029;-65
2023/09/24 07:53:33;;;;;;;20.38;6.05;;;11.20;99.90;;;;;;5019729;28;20022;-66
2023/09/24 07:56:02;;;;;;;8.55;5.43;;;11.40;99.90;;;;;;5018828;28;20122;-66
2023/09/24 07:58:30;;;;;;;8.25;5.20;;;11.60;99.90;;;;;;5019971;28;20037;-66
2023/09/24 08:01:11;;;;;;;13.38;6.13;;;11.80;99.90;;;;;;5018542;28;20026;-66
2023/09/24 08:03:38;;;;;;;8.00;5.65;;;11.70;99.90;;;;;;5019563;28;20033;-66
2023/09/24 08:06:04;;;;;;;8.82;5.70;;;11.90;99.90;;;;;;5019384;28;20053;-66
2023/09/24 08:08:30;;;;;;;12.02;7.13;;;11.90;99.90;;;;;;5018752;28;20068;-65
2023/09/24 08:10:57;;;;;;;9.98;6.28;;;11.80;99.90;;;;;;5019358;28;20041;-67
2023/09/24 08:13:23;;;;;;;11.82;6.18;;;11.70;99.90;;;;;;5018376;28;20030;-67
2023/09/24 08:15:48;;;;;;;12.32;6.85;;;11.90;99.90;;;;;;5018486;28;20036;-67
2023/09/24 08:18:15;;;;;;;11.20;7.22;;;11.80;99.90;;;;;;5018384;28;20029;-67
2023/09/24 08:20:41;;;;;;;12.13;6.40;;;12.00;99.90;;;;;;5019451;28;20026;-67
2023/09/24 08:23:06;;;;;;;10.25;5.90;;;12.10;99.90;;;;;;5019209;28;20032;-68
2023/09/24 08:25:32;;;;;;;9.95;5.88;;;12.20;99.90;;;;;;5019111;28;20026;-67
2023/09/24 08:27:58;;;;;;;12.45;5.78;;;12.30;99.90;;;;;;5019580;28;20037;-68
2023/09/24 08:30:27;;;;;;;10.60;5.72;;;12.50;99.90;;;;;;5019095;28;20037;-67
2023/09/24 08:32:53;;;;;;;12.85;5.20;;;12.70;99.90;;;;;;5018927;28;20026;-68
2023/09/24 08:35:19;;;;;;;9.88;5.50;;;12.90;99.90;;;;;;5019035;28;20030;-67
2023/09/24 08:37:44;;;;;;;10.98;5.90;;;13.10;99.90;;;;;;5018278;28;20112;-67
2023/09/24 08:40:11;;;;;;;8.73;5.43;;;13.00;99.90;;;;;;5018304;28;20033;-67
2023/09/24 08:42:37;;;;;;;12.07;5.97;;;13.00;99.90;;;;;;5018405;28;20022;-67
2023/09/24 08:45:15;;;;;;;10.43;5.20;;;13.30;99.90;;;;;;5018394;28;20026;-67
2023/09/24 08:47:42;;;;;;;11.48;5.43;;;13.50;99.90;;;;;;5018907;28;20123;-68
2023/09/24 08:50:08;;;;;;;11.90;5.93;;;13.60;99.90;;;;;;5018061;28;20026;-68
2023/09/24 08:52:37;;;;;;;7.82;5.10;;;13.80;99.90;;;;;;5017750;28;20026;-68
2023/09/24 08:55:08;;;;;;;10.27;5.53;;;14.00;99.90;;;;;;5017755;28;20032;-68
2023/09/24 08:57:34;;;;;;;8.30;5.05;;;14.00;99.90;;;;;;5018478;28;20032;-68
2023/09/24 09:00:01;;;;;;;11.93;5.90;;;13.90;99.90;;;;;;5018774;28;20026;-67
2023/09/24 09:02:27;;;;;;;13.98;6.10;;;13.70;99.90;;;;;;5017533;28;20033;-67
2023/09/24 09:04:55;;;;;;;9.80;5.18;;;13.90;99.90;;;;;;5018480;28;20025;-67
2023/09/24 09:07:20;;;;;;;10.65;5.28;;;13.90;99.90;;;;;;5018277;28;20022;-67
2023/09/24 09:09:57;;;;;;;15.98;6.05;;;14.00;99.90;;;;;;5018315;28;20037;-68
2023/09/24 09:12:24;;;;;;;10.55;5.72;;;14.10;99.90;;;;;;5018227;28;20029;-67
2023/09/24 09:14:50;;;;;;;10.45;5.68;;;14.10;99.90;;;;;;5017393;28;20025;-68
2023/09/24 09:17:16;;;;;;;12.40;5.38;;;14.10;99.90;;;;;;5018241;28;20033;-68
2023/09/24 09:19:54;;;;;;;10.13;5.43;;;14.30;99.90;;;;;;5017732;28;20022;-68
2023/09/24 09:22:22;;;;;;;13.32;6.20;;;14.50;99.90;;;;;;5018117;28;20029;-67
2023/09/24 09:25:09;;;;;;;7.60;4.97;;;14.60;99.90;;;;;;5017910;28;20176;-68
2023/09/24 09:27:43;;;;;;;8.70;4.80;;;14.50;99.90;;;;;;5016898;28;20033;-67
2023/09/24 09:30:13;;;;;;;6.28;4.25;;;14.70;99.90;;;;;;5017908;28;20021;-67
2023/09/24 09:32:39;;;;;;;9.02;4.63;;;14.80;99.90;;;;;;5017973;28;20102;-68
2023/09/24 09:35:05;;;;;;;9.00;4.82;;;14.90;99.90;;;;;;5017353;28;20041;-68
2023/09/24 09:37:31;;;;;;;6.78;4.50;;;15.10;99.90;;;;;;5018138;28;20033;-68
2023/09/24 09:39:56;;;;;;;8.95;4.70;;;15.20;99.90;;;;;;5016889;28;20036;-68
2023/09/24 09:42:25;;;;;;;10.15;4.70;;;15.30;99.90;;;;;;5017770;28;20033;-68
2023/09/24 09:44:54;;;;;;;7.50;4.05;;;15.60;99.90;;;;;;5016837;28;20049;-68
2023/09/24 09:47:24;;;;;;;9.40;4.00;;;15.80;99.90;;;;;;5017799;28;20076;-67
2023/09/24 09:50:00;;;;;;;9.07;4.35;;;16.00;99.90;;;;;;5017809;28;20105;-67
2023/09/24 09:52:43;;;;;;;8.10;3.78;;;16.10;99.90;;;;;;5017522;28;20026;-68
2023/09/24 09:55:09;;;;;;;7.13;4.22;;;16.20;99.90;;;;;;5015921;28;20022;-68
2023/09/24 09:57:35;;;;;;;7.38;3.83;;;16.20;99.90;;;;;;5017811;28;20029;-67
2023/09/24 10:00:10;;;;;;;6.85;4.00;;;16.30;99.90;;;;;;5017551;28;20021;-68
2023/09/24 10:02:40;;;;;;;7.82;3.80;;;16.50;99.90;;;;;;5017614;28;20029;-67
2023/09/24 10:05:07;;;;;;;6.60;3.55;;;16.80;99.90;;;;;;5017528;28;20030;-68
2023/09/24 10:07:40;;;;;;;9.45;3.75;;;16.70;99.90;;;;;;5017601;28;20022;-67
2023/09/24 10:10:31;;;;;;;5.43;2.80;;;16.80;99.90;;;;;;5016683;28;20029;-67
2023/09/24 10:13:02;;;;;;;6.18;3.00;;;16.90;99.90;;;;;;5017435;28;20014;-67
2023/09/24 10:15:30;;;;;;;6.00;2.88;;;17.10;99.90;;;;;;5017572;28;20037;-67
2023/09/24 10:18:11;;;;;;;8.95;2.97;;;17.10;99.90;;;;;;5017250;28;20176;-67
2023/09/24 10:20:49;;;;;;;9.23;3.00;;;17.40;99.90;;;;;;5017191;28;20030;-67
2023/09/24 10:23:29;;;;;;;7.70;2.60;;;17.70;99.90;;;;;;5017282;28;20030;-67
2023/09/24 10:26:00;;;;;;;4.25;2.17;;;17.70;99.90;;;;;;5017039;28;20033;-68
2023/09/24 10:28:48;;;;;;;7.45;3.00;;;17.50;99.90;;;;;;5017471;28;20068;-67
2023/09/24 10:31:16;;;;;;;4.38;2.40;;;17.60;99.90;;;;;;5017103;28;20030;-68
2023/09/24 10:34:05;;;;;;;5.72;2.50;;;17.90;99.90;;;;;;5017221;28;20022;-67
2023/09/24 10:36:33;;;;;;;7.32;2.75;;;18.30;99.90;;;;;;5017164;28;20030;-68
2023/09/24 10:39:08;;;;;;;4.88;2.20;;;18.50;99.90;;;;;;5017509;28;20026;-68
2023/09/24 10:41:35;;;;;;;4.13;2.17;;;18.80;99.90;;;;;;5016271;28;20029;-68
2023/09/24 10:44:23;;;;;;;6.95;2.38;;;19.00;99.90;;;;;;5017055;28;20022;-67
2023/09/24 10:46:49;;;;;;;7.82;2.38;;;19.00;99.90;;;;;;5016166;28;20053;-67
2023/09/24 10:49:21;;;;;;;4.35;2.40;;;19.10;99.90;;;;;;5016962;28;20033;-68
2023/09/24 10:51:49;;;;;;;3.75;2.20;;;19.60;99.90;;;;;;5017408;28;20025;-68
2023/09/24 10:54:16;;;;;;;5.72;2.30;;;19.60;99.90;;;;;;5016867;28;20022;-68
2023/09/24 10:56:48;;;;;;;3.67;2.22;;;19.60;99.90;;;;;;5016955;28;20053;-68
2023/09/24 10:59:16;;;;;;;5.50;1.80;;;20.50;99.90;;;;;;5017106;28;20245;-68
2023/09/24 11:01:43;;;;;;;4.75;1.88;;;20.60;99.90;;;;;;5015870;28;20022;-68
2023/09/24 11:04:09;;;;;;;4.72;1.50;;;20.80;99.90;;;;;;5016251;28;20026;-68
2023/09/24 11:06:35;;;;;;;4.38;1.45;;;21.10;99.90;;;;;;5019320;28;20026;-68
2023/09/24 11:09:18;;;;;;;5.00;1.80;;;21.60;99.90;;;;;;5020874;28;20026;-68
2023/09/24 11:11:44;;;;;;;3.83;1.50;;;21.40;99.90;;;;;;5019722;28;20030;-67
2023/09/24 11:14:24;;;;;;;2.70;1.40;;;20.80;99.90;;;;;;5020363;28;20033;-68
2023/09/24 11:16:50;;;;;;;2.07;1.27;;;20.50;99.90;;;;;;5019505;28;20026;-68
2023/09/24 11:19:42;;;;;;;3.42;1.40;;;21.20;99.90;;;;;;5020101;28;20030;-68
2023/09/24 11:22:22;;;;;;;4.38;1.23;;;22.20;99.90;;;;;;5019468;28;20026;-68
2023/09/24 11:25:08;;;;;;;7.40;1.65;;;22.10;99.90;;;;;;5020254;28;20045;-68
2023/09/24 11:27:44;;;;;;;3.10;1.20;;;21.90;99.90;;;;;;5020198;28;20029;-68
2023/09/24 11:30:11;;;;;;;4.80;1.10;;;22.00;99.90;;;;;;5019772;28;20022;-68
2023/09/24 11:32:36;;;;;;;3.28;0.98;;;21.50;99.90;;;;;;5020165;28;20022;-68
2023/09/24 11:35:13;;;;;;;2.40;1.10;;;21.50;99.90;;;;;;5019455;28;20029;-68
2023/09/24 11:38:01;;;;;;;2.47;1.15;;;21.50;99.90;;;;;;5019248;28;20022;-68
2023/09/24 11:40:40;;;;;;;2.65;1.20;;;21.20;99.90;;;;;;5019960;28;20030;-68
2023/09/24 11:43:13;;;;;;;5.18;1.75;;;21.00;99.90;;;;;;5019288;28;20050;-68
2023/09/24 11:45:46;;;;;;;2.53;1.33;;;21.00;99.90;;;;;;5019723;28;20030;-68
2023/09/24 11:48:21;;;;;;;2.95;1.25;;;21.00;99.90;;;;;;5019913;28;20022;-68
2023/09/24 11:50:53;;;;;;;4.20;1.75;;;21.20;99.90;;;;;;5018854;28;20022;-68
2023/09/24 11:53:21;;;;;;;3.80;1.67;;;21.40;99.90;;;;;;5019814;28;20100;-68
2023/09/24 11:55:48;;;;;;;2.88;1.30;;;22.40;99.90;;;;;;5019750;28;20018;-68
2023/09/24 11:58:14;;;;;;;4.95;1.27;;;23.30;99.90;;;;;;5019748;28;20018;-68
2023/09/24 12:00:43;;;;;;;5.20;2.08;;;23.90;99.90;;;;;;5019601;28;20209;-68
2023/09/24 12:03:09;;;;;;;5.28;1.40;;;22.90;99.90;;;;;;5019552;28;20018;-68
2023/09/24 12:05:35;;;;;;;3.70;1.40;;;22.10;99.90;;;;;;5019373;28;20029;-68
2023/09/24 12:08:03;;;;;;;5.25;1.42;;;21.90;99.90;;;;;;5018301;28;20026;-68
2023/09/24 12:10:29;;;;;;;1.80;1.33;;;22.00;99.90;;;;;;5019223;28;20117;-68
2023/09/24 12:13:00;;;;;;;2.17;1.17;;;22.40;99.90;;;;;;5019863;28;20056;-68
2023/09/24 12:15:26;;;;;;;5.30;1.23;;;23.10;99.90;;;;;;5018472;28;20026;-68
2023/09/24 12:17:55;;;;;;;2.85;1.52;;;24.60;99.90;;;;;;5018489;28;20065;-68
2023/09/24 12:20:20;;;;;;;4.15;1.88;;;25.50;99.90;;;;;;5018112;28;20080;-68
2023/09/24 12:22:46;;;;;;;3.03;1.38;;;26.10;99.90;;;;;;5018275;28;20026;-68
2023/09/24 12:25:12;;;;;;;6.85;1.63;;;26.70;99.90;;;;;;5019083;28;20113;-68
2023/09/24 12:27:41;;;;;;;3.05;1.25;;;26.70;99.90;;;;;;5018177;28;20056;-68
2023/09/24 12:30:10;;;;;;;1.85;1.30;;;27.00;99.90;;;;;;5018136;28;20021;-68
2023/09/24 12:32:36;;;;;;;5.75;1.83;;;26.80;99.90;;;;;;5018959;28;20033;-68
2023/09/24 12:35:03;;;;;;;5.55;1.60;;;26.60;99.70;;;;;;5019170;28;20097;-68
2023/09/24 12:37:29;;;;;;;5.35;1.58;;;26.20;99.90;;;;;;5018739;28;20026;-68
2023/09/24 12:39:55;;;;;;;6.57;1.48;;;26.70;99.90;;;;;;5018002;28;20048;-68
2023/09/24 12:42:21;;;;;;;6.40;2.28;;;25.30;99.90;;;;;;5017939;28;20026;-68
2023/09/24 12:44:48;;;;;;;4.93;1.10;;;25.40;99.90;;;;;;5019256;28;20025;-68
2023/09/24 12:47:14;;;;;;;1.50;1.08;;;26.60;99.60;;;;;;5018693;28;20107;-68
2023/09/24 12:49:39;;;;;;;2.05;1.50;;;25.50;98.20;;;;;;5017736;28;20056;-68